sensor_id;sensor_type;location;lat;lon;timestamp;P1;durP1;ratioP1;P2;durP2;ratioP2
5333;SDS011;2689;50.954;7.116;2023-12-07T00:00:39;13.87;;;9.17;;
5333;SDS011;2689;50.954;7.116;2023-12-07T00:03:06;13.77;;;9.10;;
5333;SDS011;2689;50.954;7.116;2023-12-07T00:05:33;13.23;;;9.43;;
5333;SDS011;2689;50.954;7.116;2023-12-07T00:07:59;17.53;;;9.57;;
5333;SDS011;2689;50.954;7.116;2023-12-07T00:10:26;14.80;;;9.03;;
5333;SDS011;2689;50.954;7.116;2023-12-07T00:12:53;12.70;;;9.03;;
5333;SDS011;2689;50.954;7.116;2023-12-07T00:15:21;12.63;;;9.37;;
5333;SDS011;2689;50.954;7.116;2023-12-07T00:17:47;9.43;;;7.47;;
5333;SDS011;2689;50.954;7.116;2023-12-07T00:20:15;11.50;;;8.20;;
5333;SDS011;2689;50.954;7.116;2023-12-07T00:22:42;11.97;;;8.30;;
5333;SDS011;2689;50.954;7.116;2023-12-07T00:25:09;11.73;;;8.67;;
5333;SDS011;2689;50.954;7.116;2023-12-07T00:27:35;14.50;;;9.57;;
5333;SDS011;2689;50.954;7.116;2023-12-07T00:30:05;12.13;;;9.33;;
5333;SDS011;2689;50.954;7.116;2023-12-07T00:32:35;11.77;;;9.00;;
5333;SDS011;2689;50.954;7.116;2023-12-07T00:35:02;19.50;;;10.10;;
5333;SDS011;2689;50.954;7.116;2023-12-07T00:37:29;12.83;;;9.23;;
5333;SDS011;2689;50.954;7.116;2023-12-07T00:39:56;10.90;;;9.00;;
5333;SDS011;2689;50.954;7.116;2023-12-07T00:42:22;11.20;;;8.97;;
5333;SDS011;2689;50.954;7.116;2023-12-07T00:44:50;14.80;;;9.50;;
5333;SDS011;2689;50.954;7.116;2023-12-07T00:47:17;11.43;;;9.07;;
5333;SDS011;2689;50.954;7.116;2023-12-07T00:49:45;10.77;;;8.50;;
5333;SDS011;2689;50.954;7.116;2023-12-07T00:52:14;13.40;;;10.33;;
5333;SDS011;2689;50.954;7.116;2023-12-07T00:54:41;13.60;;;10.50;;
5333;SDS011;2689;50.954;7.116;2023-12-07T00:57:07;11.03;;;8.87;;
5333;SDS011;2689;50.954;7.116;2023-12-07T00:59:34;14.63;;;10.23;;
5333;SDS011;2689;50.954;7.116;2023-12-07T01:02:01;14.60;;;9.90;;
5333;SDS011;2689;50.954;7.116;2023-12-07T01:04:28;16.60;;;11.30;;
5333;SDS011;2689;50.954;7.116;2023-12-07T01:06:58;15.13;;;11.37;;
5333;SDS011;2689;50.954;7.116;2023-12-07T01:09:25;16.67;;;10.80;;
5333;SDS011;2689;50.954;7.116;2023-12-07T01:11:52;17.57;;;11.43;;
5333;SDS011;2689;50.954;7.116;2023-12-07T01:14:19;16.20;;;11.27;;
5333;SDS011;2689;50.954;7.116;2023-12-07T01:16:45;15.30;;;10.37;;
5333;SDS011;2689;50.954;7.116;2023-12-07T01:19:12;17.60;;;11.53;;
5333;SDS011;2689;50.954;7.116;2023-12-07T01:21:39;17.40;;;11.77;;
5333;SDS011;2689;50.954;7.116;2023-12-07T01:24:07;13.00;;;10.13;;
5333;SDS011;2689;50.954;7.116;2023-12-07T01:26:34;18.50;;;11.43;;
5333;SDS011;2689;50.954;7.116;2023-12-07T01:29:01;18.37;;;11.70;;
5333;SDS011;2689;50.954;7.116;2023-12-07T01:31:28;13.00;;;10.50;;
5333;SDS011;2689;50.954;7.116;2023-12-07T01:33:55;13.57;;;10.63;;
5333;SDS011;2689;50.954;7.116;2023-12-07T01:36:22;16.43;;;11.17;;
5333;SDS011;2689;50.954;7.116;2023-12-07T01:38:47;15.90;;;10.53;;
5333;SDS011;2689;50.954;7.116;2023-12-07T01:41:15;16.63;;;11.30;;
5333;SDS011;2689;50.954;7.116;2023-12-07T01:43:44;17.10;;;10.57;;
5333;SDS011;2689;50.954;7.116;2023-12-07T01:46:12;13.90;;;10.30;;
5333;SDS011;2689;50.954;7.116;2023-12-07T01:48:40;17.00;;;12.13;;
5333;SDS011;2689;50.954;7.116;2023-12-07T01:51:07;17.07;;;11.53;;
5333;SDS011;2689;50.954;7.116;2023-12-07T01:53:34;20.23;;;12.27;;
5333;SDS011;2689;50.954;7.116;2023-12-07T01:56:11;15.77;;;12.00;;
5333;SDS011;2689;50.954;7.116;2023-12-07T01:58:43;16.40;;;11.83;;
5333;SDS011;2689;50.954;7.116;2023-12-07T02:01:17;15.90;;;11.83;;
5333;SDS011;2689;50.954;7.116;2023-12-07T02:03:47;14.97;;;11.40;;
5333;SDS011;2689;50.954;7.116;2023-12-07T02:06:13;18.00;;;11.13;;
5333;SDS011;2689;50.954;7.116;2023-12-07T02:08:41;16.13;;;12.07;;
5333;SDS011;2689;50.954;7.116;2023-12-07T02:11:09;15.30;;;11.50;;
5333;SDS011;2689;50.954;7.116;2023-12-07T02:13:36;17.73;;;12.43;;
5333;SDS011;2689;50.954;7.116;2023-12-07T02:16:07;15.50;;;11.57;;
5333;SDS011;2689;50.954;7.116;2023-12-07T02:18:40;19.03;;;14.00;;
5333;SDS011;2689;50.954;7.116;2023-12-07T02:21:13;21.53;;;14.10;;
5333;SDS011;2689;50.954;7.116;2023-12-07T02:23:48;16.07;;;12.93;;
5333;SDS011;2689;50.954;7.116;2023-12-07T02:26:18;18.80;;;14.43;;
5333;SDS011;2689;50.954;7.116;2023-12-07T02:28:48;16.53;;;12.33;;
5333;SDS011;2689;50.954;7.116;2023-12-07T02:31:15;19.30;;;13.77;;
5333;SDS011;2689;50.954;7.116;2023-12-07T02:33:41;19.23;;;13.93;;
5333;SDS011;2689;50.954;7.116;2023-12-07T02:36:08;17.87;;;13.93;;
5333;SDS011;2689;50.954;7.116;2023-12-07T02:38:38;17.93;;;14.40;;
5333;SDS011;2689;50.954;7.116;2023-12-07T02:41:05;18.10;;;13.40;;
5333;SDS011;2689;50.954;7.116;2023-12-07T02:43:33;19.73;;;12.87;;
5333;SDS011;2689;50.954;7.116;2023-12-07T02:46:01;20.90;;;13.77;;
5333;SDS011;2689;50.954;7.116;2023-12-07T02:48:31;22.50;;;14.63;;
5333;SDS011;2689;50.954;7.116;2023-12-07T02:50:58;19.77;;;14.30;;
5333;SDS011;2689;50.954;7.116;2023-12-07T02:53:24;23.20;;;14.50;;
5333;SDS011;2689;50.954;7.116;2023-12-07T02:55:51;20.83;;;13.03;;
5333;SDS011;2689;50.954;7.116;2023-12-07T02:58:18;19.53;;;15.40;;
5333;SDS011;2689;50.954;7.116;2023-12-07T03:00:44;21.53;;;15.60;;
5333;SDS011;2689;50.954;7.116;2023-12-07T03:03:12;18.60;;;14.90;;
5333;SDS011;2689;50.954;7.116;2023-12-07T03:05:39;19.93;;;15.50;;
5333;SDS011;2689;50.954;7.116;2023-12-07T03:08:06;19.47;;;14.67;;
5333;SDS011;2689;50.954;7.116;2023-12-07T03:10:34;21.87;;;14.70;;
5333;SDS011;2689;50.954;7.116;2023-12-07T03:13:00;21.20;;;15.47;;
5333;SDS011;2689;50.954;7.116;2023-12-07T03:15:27;19.23;;;13.80;;
5333;SDS011;2689;50.954;7.116;2023-12-07T03:17:54;23.10;;;16.27;;
5333;SDS011;2689;50.954;7.116;2023-12-07T03:20:22;21.97;;;16.40;;
5333;SDS011;2689;50.954;7.116;2023-12-07T03:22:48;20.40;;;15.50;;
5333;SDS011;2689;50.954;7.116;2023-12-07T03:25:15;23.03;;;17.10;;
5333;SDS011;2689;50.954;7.116;2023-12-07T03:27:42;24.23;;;16.03;;
5333;SDS011;2689;50.954;7.116;2023-12-07T03:30:09;18.53;;;15.03;;
5333;SDS011;2689;50.954;7.116;2023-12-07T03:32:37;21.40;;;16.07;;
5333;SDS011;2689;50.954;7.116;2023-12-07T03:35:06;27.57;;;16.17;;
5333;SDS011;2689;50.954;7.116;2023-12-07T03:37:34;21.27;;;15.20;;
5333;SDS011;2689;50.954;7.116;2023-12-07T03:40:00;21.00;;;14.77;;
5333;SDS011;2689;50.954;7.116;2023-12-07T03:42:29;20.60;;;15.60;;
5333;SDS011;2689;50.954;7.116;2023-12-07T03:44:56;20.90;;;14.77;;
5333;SDS011;2689;50.954;7.116;2023-12-07T03:47:23;19.40;;;14.90;;
5333;SDS011;2689;50.954;7.116;2023-12-07T03:49:51;19.70;;;14.57;;
5333;SDS011;2689;50.954;7.116;2023-12-07T03:52:21;20.63;;;15.40;;
5333;SDS011;2689;50.954;7.116;2023-12-07T03:54:49;20.77;;;15.30;;
5333;SDS011;2689;50.954;7.116;2023-12-07T03:57:15;21.37;;;15.53;;
5333;SDS011;2689;50.954;7.116;2023-12-07T03:59:41;19.53;;;15.43;;
5333;SDS011;2689;50.954;7.116;2023-12-07T04:02:08;24.90;;;17.50;;
5333;SDS011;2689;50.954;7.116;2023-12-07T04:04:34;21.07;;;16.13;;
5333;SDS011;2689;50.954;7.116;2023-12-07T04:07:01;21.33;;;16.23;;
5333;SDS011;2689;50.954;7.116;2023-12-07T04:09:28;24.47;;;17.27;;
5333;SDS011;2689;50.954;7.116;2023-12-07T04:11:57;23.30;;;15.93;;
5333;SDS011;2689;50.954;7.116;2023-12-07T04:14:26;23.97;;;17.80;;
5333;SDS011;2689;50.954;7.116;2023-12-07T04:16:53;21.27;;;15.57;;
5333;SDS011;2689;50.954;7.116;2023-12-07T04:19:19;19.83;;;15.50;;
5333;SDS011;2689;50.954;7.116;2023-12-07T04:21:46;24.33;;;17.40;;
5333;SDS011;2689;50.954;7.116;2023-12-07T04:24:13;21.17;;;16.00;;
5333;SDS011;2689;50.954;7.116;2023-12-07T04:26:39;24.90;;;16.40;;
5333;SDS011;2689;50.954;7.116;2023-12-07T04:29:08;23.70;;;16.30;;
5333;SDS011;2689;50.954;7.116;2023-12-07T04:31:34;20.17;;;15.47;;
5333;SDS011;2689;50.954;7.116;2023-12-07T04:34:01;21.07;;;16.40;;
5333;SDS011;2689;50.954;7.116;2023-12-07T04:36:28;28.10;;;16.40;;
5333;SDS011;2689;50.954;7.116;2023-12-07T04:38:55;20.73;;;15.60;;
5333;SDS011;2689;50.954;7.116;2023-12-07T04:41:21;22.63;;;16.30;;
5333;SDS011;2689;50.954;7.116;2023-12-07T04:43:48;19.33;;;15.40;;
5333;SDS011;2689;50.954;7.116;2023-12-07T04:46:16;20.30;;;15.50;;
5333;SDS011;2689;50.954;7.116;2023-12-07T04:48:43;18.23;;;13.53;;
5333;SDS011;2689;50.954;7.116;2023-12-07T04:51:09;31.80;;;15.03;;
5333;SDS011;2689;50.954;7.116;2023-12-07T04:53:36;18.83;;;13.63;;
5333;SDS011;2689;50.954;7.116;2023-12-07T04:56:03;21.60;;;15.40;;
5333;SDS011;2689;50.954;7.116;2023-12-07T04:58:30;18.10;;;13.80;;
5333;SDS011;2689;50.954;7.116;2023-12-07T05:00:57;19.60;;;14.90;;
5333;SDS011;2689;50.954;7.116;2023-12-07T05:03:25;21.47;;;14.47;;
5333;SDS011;2689;50.954;7.116;2023-12-07T05:05:52;18.30;;;13.60;;
5333;SDS011;2689;50.954;7.116;2023-12-07T05:08:19;19.20;;;13.97;;
5333;SDS011;2689;50.954;7.116;2023-12-07T05:10:46;19.23;;;13.83;;
5333;SDS011;2689;50.954;7.116;2023-12-07T05:13:12;19.47;;;12.47;;
5333;SDS011;2689;50.954;7.116;2023-12-07T05:15:39;19.27;;;12.03;;
5333;SDS011;2689;50.954;7.116;2023-12-07T05:18:06;20.53;;;13.60;;
5333;SDS011;2689;50.954;7.116;2023-12-07T05:20:34;16.67;;;13.13;;
5333;SDS011;2689;50.954;7.116;2023-12-07T05:23:04;82.47;;;53.73;;
5333;SDS011;2689;50.954;7.116;2023-12-07T05:25:31;21.83;;;13.57;;
5333;SDS011;2689;50.954;7.116;2023-12-07T05:27:58;18.97;;;14.33;;
5333;SDS011;2689;50.954;7.116;2023-12-07T05:30:25;24.47;;;14.03;;
5333;SDS011;2689;50.954;7.116;2023-12-07T05:32:52;19.10;;;13.67;;
5333;SDS011;2689;50.954;7.116;2023-12-07T05:35:19;18.47;;;13.20;;
5333;SDS011;2689;50.954;7.116;2023-12-07T05:37:47;18.87;;;13.03;;
5333;SDS011;2689;50.954;7.116;2023-12-07T05:40:14;17.77;;;13.10;;
5333;SDS011;2689;50.954;7.116;2023-12-07T05:42:41;22.30;;;13.50;;
5333;SDS011;2689;50.954;7.116;2023-12-07T05:45:08;17.20;;;13.90;;
5333;SDS011;2689;50.954;7.116;2023-12-07T05:47:35;20.37;;;14.17;;
5333;SDS011;2689;50.954;7.116;2023-12-07T05:50:02;19.13;;;12.77;;
5333;SDS011;2689;50.954;7.116;2023-12-07T05:52:29;21.23;;;13.37;;
5333;SDS011;2689;50.954;7.116;2023-12-07T05:54:57;17.03;;;12.70;;
5333;SDS011;2689;50.954;7.116;2023-12-07T05:57:26;17.37;;;12.73;;
5333;SDS011;2689;50.954;7.116;2023-12-07T05:59:53;18.00;;;12.43;;
5333;SDS011;2689;50.954;7.116;2023-12-07T06:02:19;18.47;;;12.30;;
5333;SDS011;2689;50.954;7.116;2023-12-07T06:04:47;19.30;;;12.70;;
5333;SDS011;2689;50.954;7.116;2023-12-07T06:07:14;18.17;;;12.67;;
5333;SDS011;2689;50.954;7.116;2023-12-07T06:09:41;15.37;;;12.30;;
5333;SDS011;2689;50.954;7.116;2023-12-07T06:12:09;17.50;;;11.67;;
5333;SDS011;2689;50.954;7.116;2023-12-07T06:14:36;15.53;;;12.77;;
5333;SDS011;2689;50.954;7.116;2023-12-07T06:17:03;17.93;;;11.90;;
5333;SDS011;2689;50.954;7.116;2023-12-07T06:19:29;17.03;;;12.83;;
5333;SDS011;2689;50.954;7.116;2023-12-07T06:21:57;18.40;;;12.87;;
5333;SDS011;2689;50.954;7.116;2023-12-07T06:24:23;16.50;;;10.27;;
5333;SDS011;2689;50.954;7.116;2023-12-07T06:26:50;12.87;;;7.30;;
5333;SDS011;2689;50.954;7.116;2023-12-07T06:29:18;15.53;;;11.20;;
5333;SDS011;2689;50.954;7.116;2023-12-07T06:31:47;15.10;;;11.83;;
5333;SDS011;2689;50.954;7.116;2023-12-07T06:34:14;14.63;;;10.80;;
5333;SDS011;2689;50.954;7.116;2023-12-07T06:36:41;15.43;;;12.10;;
5333;SDS011;2689;50.954;7.116;2023-12-07T06:39:10;17.47;;;12.07;;
5333;SDS011;2689;50.954;7.116;2023-12-07T06:41:36;16.73;;;11.73;;
5333;SDS011;2689;50.954;7.116;2023-12-07T06:44:03;17.73;;;11.33;;
5333;SDS011;2689;50.954;7.116;2023-12-07T06:46:31;17.40;;;12.07;;
5333;SDS011;2689;50.954;7.116;2023-12-07T06:48:58;15.60;;;11.13;;
5333;SDS011;2689;50.954;7.116;2023-12-07T06:51:25;16.40;;;11.70;;
5333;SDS011;2689;50.954;7.116;2023-12-07T06:53:52;17.27;;;11.33;;
5333;SDS011;2689;50.954;7.116;2023-12-07T06:56:18;14.00;;;10.87;;
5333;SDS011;2689;50.954;7.116;2023-12-07T06:58:45;19.50;;;11.73;;
5333;SDS011;2689;50.954;7.116;2023-12-07T07:01:13;17.00;;;10.80;;
5333;SDS011;2689;50.954;7.116;2023-12-07T07:03:41;20.30;;;13.73;;
5333;SDS011;2689;50.954;7.116;2023-12-07T07:06:07;19.93;;;14.00;;
5333;SDS011;2689;50.954;7.116;2023-12-07T07:08:34;16.30;;;11.27;;
5333;SDS011;2689;50.954;7.116;2023-12-07T07:11:09;17.73;;;12.10;;
5333;SDS011;2689;50.954;7.116;2023-12-07T07:13:38;14.97;;;11.13;;
5333;SDS011;2689;50.954;7.116;2023-12-07T07:16:05;18.60;;;13.13;;
5333;SDS011;2689;50.954;7.116;2023-12-07T07:18:33;17.00;;;11.80;;
5333;SDS011;2689;50.954;7.116;2023-12-07T07:21:01;15.43;;;11.30;;
5333;SDS011;2689;50.954;7.116;2023-12-07T07:23:29;18.37;;;13.30;;
5333;SDS011;2689;50.954;7.116;2023-12-07T07:25:56;16.77;;;12.50;;
5333;SDS011;2689;50.954;7.116;2023-12-07T07:28:23;15.83;;;12.10;;
5333;SDS011;2689;50.954;7.116;2023-12-07T07:30:50;14.20;;;11.10;;
5333;SDS011;2689;50.954;7.116;2023-12-07T07:33:18;16.83;;;11.20;;
5333;SDS011;2689;50.954;7.116;2023-12-07T07:35:45;20.47;;;13.87;;
5333;SDS011;2689;50.954;7.116;2023-12-07T07:38:13;15.73;;;11.60;;
5333;SDS011;2689;50.954;7.116;2023-12-07T07:40:40;16.27;;;11.10;;
5333;SDS011;2689;50.954;7.116;2023-12-07T07:43:07;17.50;;;11.73;;
5333;SDS011;2689;50.954;7.116;2023-12-07T07:45:33;15.67;;;11.70;;
5333;SDS011;2689;50.954;7.116;2023-12-07T07:48:01;16.80;;;12.43;;
5333;SDS011;2689;50.954;7.116;2023-12-07T07:50:27;17.53;;;12.50;;
5333;SDS011;2689;50.954;7.116;2023-12-07T07:52:54;23.20;;;14.33;;
5333;SDS011;2689;50.954;7.116;2023-12-07T07:55:22;17.37;;;12.10;;
5333;SDS011;2689;50.954;7.116;2023-12-07T07:57:49;22.00;;;12.77;;
5333;SDS011;2689;50.954;7.116;2023-12-07T08:00:16;16.80;;;12.77;;
5333;SDS011;2689;50.954;7.116;2023-12-07T08:02:44;22.03;;;12.70;;
5333;SDS011;2689;50.954;7.116;2023-12-07T08:05:12;23.07;;;15.43;;
5333;SDS011;2689;50.954;7.116;2023-12-07T08:07:39;17.87;;;13.60;;
5333;SDS011;2689;50.954;7.116;2023-12-07T08:10:07;20.40;;;13.07;;
5333;SDS011;2689;50.954;7.116;2023-12-07T08:12:36;16.60;;;13.70;;
5333;SDS011;2689;50.954;7.116;2023-12-07T08:15:03;20.63;;;12.30;;
5333;SDS011;2689;50.954;7.116;2023-12-07T08:17:35;16.63;;;12.80;;
5333;SDS011;2689;50.954;7.116;2023-12-07T08:20:03;18.97;;;14.27;;
5333;SDS011;2689;50.954;7.116;2023-12-07T08:22:32;18.67;;;13.20;;
5333;SDS011;2689;50.954;7.116;2023-12-07T08:24:59;21.30;;;14.17;;
5333;SDS011;2689;50.954;7.116;2023-12-07T08:27:30;25.83;;;13.30;;
5333;SDS011;2689;50.954;7.116;2023-12-07T08:29:58;16.57;;;12.67;;
5333;SDS011;2689;50.954;7.116;2023-12-07T08:32:25;20.03;;;13.70;;
5333;SDS011;2689;50.954;7.116;2023-12-07T08:34:52;20.90;;;12.67;;
5333;SDS011;2689;50.954;7.116;2023-12-07T08:37:19;19.50;;;12.90;;
5333;SDS011;2689;50.954;7.116;2023-12-07T08:39:46;18.10;;;12.83;;
5333;SDS011;2689;50.954;7.116;2023-12-07T08:42:13;19.50;;;14.63;;
5333;SDS011;2689;50.954;7.116;2023-12-07T08:44:40;20.90;;;13.30;;
5333;SDS011;2689;50.954;7.116;2023-12-07T08:47:10;16.17;;;11.37;;
5333;SDS011;2689;50.954;7.116;2023-12-07T08:49:36;16.10;;;12.77;;
5333;SDS011;2689;50.954;7.116;2023-12-07T08:52:03;15.80;;;11.90;;
5333;SDS011;2689;50.954;7.116;2023-12-07T08:54:31;15.57;;;12.43;;
5333;SDS011;2689;50.954;7.116;2023-12-07T08:57:00;13.83;;;10.33;;
5333;SDS011;2689;50.954;7.116;2023-12-07T08:59:26;15.00;;;10.97;;
5333;SDS011;2689;50.954;7.116;2023-12-07T09:01:53;16.73;;;10.63;;
5333;SDS011;2689;50.954;7.116;2023-12-07T09:04:21;14.00;;;11.00;;
5333;SDS011;2689;50.954;7.116;2023-12-07T09:06:48;14.93;;;10.83;;
5333;SDS011;2689;50.954;7.116;2023-12-07T09:09:15;13.47;;;10.57;;
5333;SDS011;2689;50.954;7.116;2023-12-07T09:11:41;14.07;;;10.73;;
5333;SDS011;2689;50.954;7.116;2023-12-07T09:14:08;13.27;;;10.67;;
5333;SDS011;2689;50.954;7.116;2023-12-07T09:16:42;11.40;;;9.03;;
5333;SDS011;2689;50.954;7.116;2023-12-07T09:19:09;12.50;;;10.37;;
5333;SDS011;2689;50.954;7.116;2023-12-07T09:21:38;12.23;;;10.33;;
5333;SDS011;2689;50.954;7.116;2023-12-07T09:24:05;14.73;;;11.17;;
5333;SDS011;2689;50.954;7.116;2023-12-07T09:26:33;13.30;;;10.17;;
5333;SDS011;2689;50.954;7.116;2023-12-07T09:29:01;13.00;;;9.63;;
5333;SDS011;2689;50.954;7.116;2023-12-07T09:31:28;14.70;;;11.47;;
5333;SDS011;2689;50.954;7.116;2023-12-07T09:33:55;14.03;;;11.43;;
5333;SDS011;2689;50.954;7.116;2023-12-07T09:36:22;15.10;;;11.50;;
5333;SDS011;2689;50.954;7.116;2023-12-07T09:38:50;14.70;;;11.40;;
5333;SDS011;2689;50.954;7.116;2023-12-07T09:41:17;19.47;;;13.07;;
5333;SDS011;2689;50.954;7.116;2023-12-07T09:43:45;20.10;;;14.33;;
5333;SDS011;2689;50.954;7.116;2023-12-07T09:49:32;13.47;;;8.70;;
5333;SDS011;2689;50.954;7.116;2023-12-07T09:51:58;16.30;;;11.63;;
5333;SDS011;2689;50.954;7.116;2023-12-07T09:54:28;13.40;;;10.27;;
5333;SDS011;2689;50.954;7.116;2023-12-07T09:56:56;13.43;;;9.97;;
5333;SDS011;2689;50.954;7.116;2023-12-07T09:59:23;16.10;;;11.07;;
5333;SDS011;2689;50.954;7.116;2023-12-07T10:01:48;12.77;;;8.33;;
5333;SDS011;2689;50.954;7.116;2023-12-07T10:04:15;15.50;;;12.80;;
5333;SDS011;2689;50.954;7.116;2023-12-07T10:06:43;15.07;;;11.53;;
5333;SDS011;2689;50.954;7.116;2023-12-07T10:09:10;14.37;;;10.30;;
5333;SDS011;2689;50.954;7.116;2023-12-07T10:11:39;11.90;;;7.83;;
5333;SDS011;2689;50.954;7.116;2023-12-07T10:14:08;9.80;;;6.20;;
5333;SDS011;2689;50.954;7.116;2023-12-07T10:16:35;19.07;;;12.17;;
5333;SDS011;2689;50.954;7.116;2023-12-07T10:19:12;20.37;;;12.70;;
5333;SDS011;2689;50.954;7.116;2023-12-07T10:21:41;18.67;;;12.80;;
5333;SDS011;2689;50.954;7.116;2023-12-07T10:24:08;16.50;;;12.13;;
5333;SDS011;2689;50.954;7.116;2023-12-07T10:26:35;16.53;;;11.33;;
5333;SDS011;2689;50.954;7.116;2023-12-07T10:29:03;15.50;;;11.00;;
5333;SDS011;2689;50.954;7.116;2023-12-07T10:31:31;17.67;;;12.60;;
5333;SDS011;2689;50.954;7.116;2023-12-07T10:33:58;13.57;;;8.40;;
5333;SDS011;2689;50.954;7.116;2023-12-07T10:36:25;14.17;;;11.27;;
5333;SDS011;2689;50.954;7.116;2023-12-07T10:38:53;13.43;;;6.93;;
5333;SDS011;2689;50.954;7.116;2023-12-07T10:41:20;12.90;;;7.77;;
5333;SDS011;2689;50.954;7.116;2023-12-07T10:43:48;14.23;;;10.17;;
5333;SDS011;2689;50.954;7.116;2023-12-07T10:46:20;15.17;;;10.87;;
5333;SDS011;2689;50.954;7.116;2023-12-07T10:48:47;14.13;;;8.70;;
5333;SDS011;2689;50.954;7.116;2023-12-07T10:51:17;16.90;;;11.63;;
5333;SDS011;2689;50.954;7.116;2023-12-07T10:53:48;20.47;;;11.87;;
5333;SDS011;2689;50.954;7.116;2023-12-07T10:56:24;18.23;;;13.30;;
5333;SDS011;2689;50.954;7.116;2023-12-07T10:58:55;10.00;;;8.10;;
5333;SDS011;2689;50.954;7.116;2023-12-07T11:01:27;20.20;;;11.27;;
5333;SDS011;2689;50.954;7.116;2023-12-07T11:03:55;14.00;;;8.47;;
5333;SDS011;2689;50.954;7.116;2023-12-07T11:06:23;18.00;;;11.43;;
5333;SDS011;2689;50.954;7.116;2023-12-07T11:08:51;15.40;;;11.00;;
5333;SDS011;2689;50.954;7.116;2023-12-07T11:11:23;5.47;;;4.13;;
5333;SDS011;2689;50.954;7.116;2023-12-07T11:13:57;13.20;;;9.03;;
5333;SDS011;2689;50.954;7.116;2023-12-07T11:16:30;9.93;;;6.23;;
5333;SDS011;2689;50.954;7.116;2023-12-07T11:18:58;13.50;;;11.37;;
5333;SDS011;2689;50.954;7.116;2023-12-07T11:21:25;10.10;;;7.87;;
5333;SDS011;2689;50.954;7.116;2023-12-07T11:23:52;17.97;;;10.33;;
5333;SDS011;2689;50.954;7.116;2023-12-07T11:26:20;19.10;;;12.20;;
5333;SDS011;2689;50.954;7.116;2023-12-07T11:28:48;13.10;;;10.43;;
5333;SDS011;2689;50.954;7.116;2023-12-07T11:31:15;11.73;;;8.97;;
5333;SDS011;2689;50.954;7.116;2023-12-07T11:33:44;9.00;;;5.30;;
5333;SDS011;2689;50.954;7.116;2023-12-07T11:36:13;12.40;;;8.90;;
5333;SDS011;2689;50.954;7.116;2023-12-07T11:41:43;16.37;;;9.57;;
5333;SDS011;2689;50.954;7.116;2023-12-07T11:44:10;20.13;;;10.30;;
5333;SDS011;2689;50.954;7.116;2023-12-07T11:46:40;12.80;;;9.37;;
5333;SDS011;2689;50.954;7.116;2023-12-07T11:49:08;14.10;;;8.97;;
5333;SDS011;2689;50.954;7.116;2023-12-07T11:51:36;13.97;;;10.10;;
5333;SDS011;2689;50.954;7.116;2023-12-07T11:54:03;12.30;;;9.20;;
5333;SDS011;2689;50.954;7.116;2023-12-07T11:56:30;10.43;;;8.93;;
5333;SDS011;2689;50.954;7.116;2023-12-07T11:58:57;15.47;;;9.70;;
5333;SDS011;2689;50.954;7.116;2023-12-07T12:01:25;10.80;;;8.23;;
5333;SDS011;2689;50.954;7.116;2023-12-07T12:03:53;11.37;;;8.03;;
5333;SDS011;2689;50.954;7.116;2023-12-07T12:06:23;10.00;;;8.60;;
5333;SDS011;2689;50.954;7.116;2023-12-07T12:08:51;7.90;;;6.00;;
5333;SDS011;2689;50.954;7.116;2023-12-07T12:11:18;8.43;;;6.73;;
5333;SDS011;2689;50.954;7.116;2023-12-07T12:13:45;13.50;;;8.90;;
5333;SDS011;2689;50.954;7.116;2023-12-07T12:16:12;12.13;;;9.17;;
5333;SDS011;2689;50.954;7.116;2023-12-07T12:18:40;10.87;;;7.97;;
5333;SDS011;2689;50.954;7.116;2023-12-07T12:21:08;12.90;;;9.60;;
5333;SDS011;2689;50.954;7.116;2023-12-07T12:23:36;12.63;;;9.13;;
5333;SDS011;2689;50.954;7.116;2023-12-07T12:26:07;11.60;;;8.10;;
5333;SDS011;2689;50.954;7.116;2023-12-07T12:28:36;13.90;;;8.57;;
5333;SDS011;2689;50.954;7.116;2023-12-07T12:31:08;5.30;;;3.97;;
5333;SDS011;2689;50.954;7.116;2023-12-07T12:33:36;8.80;;;6.90;;
5333;SDS011;2689;50.954;7.116;2023-12-07T12:36:03;7.77;;;6.97;;
5333;SDS011;2689;50.954;7.116;2023-12-07T12:38:36;9.73;;;8.30;;
5333;SDS011;2689;50.954;7.116;2023-12-07T12:41:05;10.47;;;7.47;;
5333;SDS011;2689;50.954;7.116;2023-12-07T12:43:33;11.80;;;6.30;;
5333;SDS011;2689;50.954;7.116;2023-12-07T12:46:01;8.63;;;6.87;;
5333;SDS011;2689;50.954;7.116;2023-12-07T12:48:27;8.40;;;7.00;;
5333;SDS011;2689;50.954;7.116;2023-12-07T12:50:54;12.83;;;7.60;;
5333;SDS011;2689;50.954;7.116;2023-12-07T12:53:21;10.80;;;8.20;;
5333;SDS011;2689;50.954;7.116;2023-12-07T12:55:51;8.20;;;5.10;;
5333;SDS011;2689;50.954;7.116;2023-12-07T12:58:18;8.90;;;4.67;;
5333;SDS011;2689;50.954;7.116;2023-12-07T13:00:49;10.30;;;7.50;;
5333;SDS011;2689;50.954;7.116;2023-12-07T13:03:15;9.37;;;6.73;;
5333;SDS011;2689;50.954;7.116;2023-12-07T13:05:43;5.77;;;4.87;;
5333;SDS011;2689;50.954;7.116;2023-12-07T13:08:15;7.03;;;4.40;;
5333;SDS011;2689;50.954;7.116;2023-12-07T13:10:42;8.83;;;4.40;;
5333;SDS011;2689;50.954;7.116;2023-12-07T13:13:13;6.67;;;4.10;;
5333;SDS011;2689;50.954;7.116;2023-12-07T13:15:40;7.63;;;5.57;;
5333;SDS011;2689;50.954;7.116;2023-12-07T13:18:09;12.90;;;7.50;;
5333;SDS011;2689;50.954;7.116;2023-12-07T13:20:36;12.70;;;8.30;;
5333;SDS011;2689;50.954;7.116;2023-12-07T13:23:03;8.57;;;5.60;;
5333;SDS011;2689;50.954;7.116;2023-12-07T13:25:32;10.97;;;8.00;;
5333;SDS011;2689;50.954;7.116;2023-12-07T13:27:59;16.47;;;9.13;;
5333;SDS011;2689;50.954;7.116;2023-12-07T13:30:29;8.43;;;7.50;;
5333;SDS011;2689;50.954;7.116;2023-12-07T13:32:58;8.60;;;7.13;;
5333;SDS011;2689;50.954;7.116;2023-12-07T13:35:29;11.53;;;7.13;;
5333;SDS011;2689;50.954;7.116;2023-12-07T13:37:57;7.53;;;6.00;;
5333;SDS011;2689;50.954;7.116;2023-12-07T13:40:26;8.40;;;7.20;;
5333;SDS011;2689;50.954;7.116;2023-12-07T13:42:53;8.37;;;6.70;;
5333;SDS011;2689;50.954;7.116;2023-12-07T13:45:20;8.50;;;6.60;;
5333;SDS011;2689;50.954;7.116;2023-12-07T13:47:48;13.27;;;8.17;;
5333;SDS011;2689;50.954;7.116;2023-12-07T13:50:15;9.77;;;7.30;;
5333;SDS011;2689;50.954;7.116;2023-12-07T13:52:41;8.30;;;6.63;;
5333;SDS011;2689;50.954;7.116;2023-12-07T13:55:08;15.57;;;7.83;;
5333;SDS011;2689;50.954;7.116;2023-12-07T13:57:35;11.40;;;8.27;;
5333;SDS011;2689;50.954;7.116;2023-12-07T14:00:02;11.80;;;6.00;;
5333;SDS011;2689;50.954;7.116;2023-12-07T14:02:29;11.40;;;6.83;;
5333;SDS011;2689;50.954;7.116;2023-12-07T14:05:00;9.83;;;8.00;;
5333;SDS011;2689;50.954;7.116;2023-12-07T14:07:26;10.30;;;7.57;;
5333;SDS011;2689;50.954;7.116;2023-12-07T14:09:53;9.47;;;7.20;;
5333;SDS011;2689;50.954;7.116;2023-12-07T14:12:20;11.03;;;7.90;;
5333;SDS011;2689;50.954;7.116;2023-12-07T14:14:49;12.43;;;7.67;;
5333;SDS011;2689;50.954;7.116;2023-12-07T14:17:16;12.23;;;7.43;;
5333;SDS011;2689;50.954;7.116;2023-12-07T14:19:44;15.30;;;7.07;;
5333;SDS011;2689;50.954;7.116;2023-12-07T14:22:16;7.20;;;6.03;;
5333;SDS011;2689;50.954;7.116;2023-12-07T14:24:43;10.43;;;6.67;;
5333;SDS011;2689;50.954;7.116;2023-12-07T14:27:10;8.93;;;6.57;;
5333;SDS011;2689;50.954;7.116;2023-12-07T14:29:37;4.27;;;3.70;;
5333;SDS011;2689;50.954;7.116;2023-12-07T14:32:04;9.97;;;6.00;;
5333;SDS011;2689;50.954;7.116;2023-12-07T14:34:34;10.50;;;5.97;;
5333;SDS011;2689;50.954;7.116;2023-12-07T14:37:01;7.90;;;5.60;;
5333;SDS011;2689;50.954;7.116;2023-12-07T14:39:33;9.07;;;6.20;;
5333;SDS011;2689;50.954;7.116;2023-12-07T14:42:01;7.83;;;5.30;;
5333;SDS011;2689;50.954;7.116;2023-12-07T14:44:28;8.80;;;5.67;;
5333;SDS011;2689;50.954;7.116;2023-12-07T14:46:55;7.47;;;5.57;;
5333;SDS011;2689;50.954;7.116;2023-12-07T14:49:22;10.80;;;6.93;;
5333;SDS011;2689;50.954;7.116;2023-12-07T14:51:49;13.20;;;7.27;;
5333;SDS011;2689;50.954;7.116;2023-12-07T14:54:16;8.37;;;6.60;;
5333;SDS011;2689;50.954;7.116;2023-12-07T14:56:47;10.20;;;6.40;;
5333;SDS011;2689;50.954;7.116;2023-12-07T14:59:14;10.87;;;6.00;;
5333;SDS011;2689;50.954;7.116;2023-12-07T15:01:42;12.47;;;6.80;;